createdAt,value
2024-05-09T00:00:29.914Z,85.8930
2024-05-09T00:01:23.495Z,85.8192
2024-05-09T00:02:25.312Z,85.6443
2024-05-09T00:03:27.051Z,85.3673
2024-05-09T00:04:28.728Z,85.3855
2024-05-09T00:05:30.608Z,85.5218
2024-05-09T00:06:32.320Z,85.9237
2024-05-09T00:07:34.060Z,86.0978
2024-05-09T00:08:35.879Z,86.1522
2024-05-09T00:09:37.882Z,86.1008
2024-05-09T00:10:40.657Z,86.0506
2024-05-09T00:11:40.678Z,86.3413
2024-05-09T00:12:42.439Z,86.1914
2024-05-09T00:13:44.338Z,86.1999
2024-05-09T00:14:45.960Z,86.2751
2024-05-09T00:15:47.589Z,86.3758
2024-05-09T00:16:49.312Z,86.1963
2024-05-09T00:17:51.634Z,85.9291
2024-05-09T00:18:54.297Z,85.9282
2024-05-09T00:19:56.166Z,85.9944
2024-05-09T00:20:57.942Z,85.7247
2024-05-09T00:21:59.640Z,85.6829
2024-05-09T00:23:01.458Z,85.8602
2024-05-09T00:24:03.233Z,85.8197
2024-05-09T00:25:04.871Z,85.8016
2024-05-09T00:26:06.634Z,85.9006
2024-05-09T00:27:08.945Z,85.9752
2024-05-09T00:28:09.131Z,86.0908
2024-05-09T00:29:10.778Z,86.2127
2024-05-09T00:30:17.824Z,86.1985
2024-05-09T00:31:14.527Z,86.3904
2024-05-09T00:32:16.362Z,86.2760
2024-05-09T00:33:18.377Z,86.5494
2024-05-09T00:34:20.327Z,86.6077
2024-05-09T00:35:22.266Z,86.7925
2024-05-09T00:36:24.240Z,86.6280
2024-05-09T00:37:26.051Z,86.6430
2024-05-09T00:38:27.868Z,86.7533
2024-05-09T00:39:29.614Z,86.9037
2024-05-09T00:40:38.586Z,87.0114
2024-05-09T00:41:33.413Z,87.0721
2024-05-09T00:42:35.178Z,86.9940
2024-05-09T00:43:36.948Z,87.1207
2024-05-09T00:44:38.662Z,87.1838
2024-05-09T00:45:40.423Z,87.1774
2024-05-09T00:46:42.141Z,87.0071
2024-05-09T00:47:44.441Z,86.8491
2024-05-09T00:48:46.464Z,86.5513
2024-05-09T00:49:48.497Z,86.5517
2024-05-09T00:50:50.305Z,86.5078
2024-05-09T00:51:52.211Z,86.5209
2024-05-09T00:52:53.846Z,86.4055
2024-05-09T00:53:55.938Z,86.3691
2024-05-09T00:54:57.638Z,86.4488
2024-05-09T00:55:59.404Z,86.3377
2024-05-09T00:57:01.057Z,86.1701
2024-05-09T00:58:02.881Z,86.0649
2024-05-09T00:59:04.672Z,86.2023
2024-05-09T01:00:12.079Z,85.8537
2024-05-09T01:01:08.561Z,85.4930
2024-05-09T01:02:10.440Z,85.6548
2024-05-09T01:03:13.904Z,85.7760
2024-05-09T01:04:13.581Z,85.7466
2024-05-09T01:05:15.394Z,85.5122
2024-05-09T01:06:17.269Z,85.6254
2024-05-09T01:07:19.051Z,85.7091
2024-05-09T01:08:21.045Z,85.5889
2024-05-09T01:09:22.911Z,85.4913
2024-05-09T01:10:32.210Z,85.4059
2024-05-09T01:11:26.917Z,85.2780
2024-05-09T01:12:28.846Z,85.2981
2024-05-09T01:13:30.538Z,85.3825
2024-05-09T01:14:32.444Z,85.2187
2024-05-09T01:15:34.215Z,84.9362
2024-05-09T01:16:36.162Z,85.0763
2024-05-09T01:17:38.082Z,85.2096
2024-05-09T01:18:40.032Z,85.1946
2024-05-09T01:19:41.941Z,85.0536
2024-05-09T01:20:45.313Z,85.2536
2024-05-09T01:21:44.676Z,85.1628
2024-05-09T01:22:46.423Z,85.2291
2024-05-09T01:23:48.115Z,85.3901
2024-05-09T01:24:49.977Z,85.3302
2024-05-09T01:25:51.679Z,85.1892
2024-05-09T01:26:53.472Z,84.9086
2024-05-09T01:27:55.223Z,85.0554
2024-05-09T01:28:56.972Z,84.8949
2024-05-09T01:29:58.748Z,84.9907
2024-05-09T01:31:00.464Z,84.8946
2024-05-09T01:32:02.320Z,85.0942
2024-05-09T01:33:04.957Z,85.1711
2024-05-09T01:34:04.937Z,85.1221
2024-05-09T01:35:06.653Z,85.1810
2024-05-09T01:36:08.594Z,85.2085
2024-05-09T01:37:10.363Z,85.1180
2024-05-09T01:38:12.312Z,85.2267
2024-05-09T01:39:14.209Z,85.1914
2024-05-09T01:40:21.961Z,85.1003
2024-05-09T01:41:18.078Z,85.1986
2024-05-09T01:42:19.782Z,85.2662
2024-05-09T01:43:21.590Z,85.0392
2024-05-09T01:44:23.412Z,85.1480
2024-05-09T01:45:25.116Z,85.1261
2024-05-09T01:46:26.846Z,84.9512
2024-05-09T01:47:28.632Z,84.8040
2024-05-09T01:48:30.463Z,84.8373
2024-05-09T01:49:32.277Z,84.8583
2024-05-09T01:50:39.108Z,85.1038
2024-05-09T01:51:36.288Z,85.1649
2024-05-09T01:52:38.030Z,84.8481
2024-05-09T01:53:39.856Z,84.7131
2024-05-09T01:54:41.617Z,84.8767
2024-05-09T01:55:43.591Z,84.8983
2024-05-09T01:56:45.406Z,84.7361
2024-05-09T01:57:47.157Z,84.7261
2024-05-09T01:58:48.926Z,84.7458
2024-05-09T01:59:50.692Z,84.7737
2024-05-09T02:00:52.616Z,84.9332
2024-05-09T02:01:57.004Z,85.0024
2024-05-09T02:02:56.921Z,85.0082
2024-05-09T02:03:59.065Z,84.8680
2024-05-09T02:05:01.239Z,84.7064
2024-05-09T02:06:03.162Z,84.8914
2024-05-09T02:07:04.930Z,85.1394
2024-05-09T02:08:06.717Z,85.0544
2024-05-09T02:09:08.370Z,85.1958
2024-05-09T02:10:16.533Z,85.1293
2024-05-09T02:11:12.442Z,84.9557
2024-05-09T02:12:14.608Z,84.7229
2024-05-09T02:13:16.729Z,84.7898
2024-05-09T02:14:18.552Z,84.9045
2024-05-09T02:15:20.287Z,84.9551
2024-05-09T02:16:22.044Z,84.9919
2024-05-09T02:17:23.908Z,84.9478
2024-05-09T02:18:25.807Z,84.8216
2024-05-09T02:19:27.710Z,84.7515
2024-05-09T02:20:34.185Z,84.8879
2024-05-09T02:21:31.831Z,84.7852
2024-05-09T02:22:33.569Z,84.7794
2024-05-09T02:23:35.353Z,84.8349
2024-05-09T02:24:37.137Z,84.8834
2024-05-09T02:25:38.891Z,84.9713
2024-05-09T02:26:40.752Z,85.0686
2024-05-09T02:27:42.458Z,85.0818
2024-05-09T02:28:44.161Z,85.2096
2024-05-09T02:29:45.825Z,85.0460
2024-05-09T02:30:47.560Z,84.9769
2024-05-09T02:31:49.542Z,85.1288
2024-05-09T02:32:51.450Z,85.2129
2024-05-09T02:33:53.438Z,85.3888
2024-05-09T02:34:55.393Z,85.3427
2024-05-09T02:35:57.083Z,85.2534
2024-05-09T02:36:58.910Z,85.3287
2024-05-09T02:38:00.953Z,85.4976
2024-05-09T02:39:02.740Z,85.5919
2024-05-09T02:40:05.648Z,85.3757
2024-05-09T02:41:04.770Z,85.3816
2024-05-09T02:42:06.455Z,85.4931
2024-05-09T02:43:09.314Z,85.6003
2024-05-09T02:44:09.750Z,85.5969
2024-05-09T02:45:11.698Z,85.4545
2024-05-09T02:46:13.411Z,85.4955
2024-05-09T02:47:15.248Z,85.6372
2024-05-09T02:48:17.056Z,85.5983
2024-05-09T02:49:19.112Z,85.6002
2024-05-09T02:50:29.712Z,85.6194
2024-05-09T02:51:23.179Z,85.7563
2024-05-09T02:52:24.921Z,85.7036
2024-05-09T02:53:26.819Z,85.6032
2024-05-09T02:54:28.538Z,85.6541
2024-05-09T02:55:30.254Z,85.6914
2024-05-09T02:56:32.005Z,85.7262
2024-05-09T02:57:33.781Z,85.8481
2024-05-09T02:58:35.485Z,85.7963
2024-05-09T02:59:37.326Z,85.8078
2024-05-09T03:00:41.505Z,85.8466
2024-05-09T03:01:39.332Z,85.7394
2024-05-09T03:02:41.117Z,85.8256
2024-05-09T03:03:43.109Z,85.8611
2024-05-09T03:04:45.175Z,85.8717
2024-05-09T03:05:47.147Z,85.8647
2024-05-09T03:06:48.949Z,85.7256
2024-05-09T03:07:50.746Z,85.7386
2024-05-09T03:08:52.511Z,85.7008
2024-05-09T03:09:54.220Z,85.8404
2024-05-09T03:10:56.139Z,85.7176
2024-05-09T03:11:57.951Z,86.0016
2024-05-09T03:12:59.815Z,85.8366
2024-05-09T03:14:01.574Z,85.7750
2024-05-09T03:15:03.324Z,85.7954
2024-05-09T03:16:05.126Z,85.7619
2024-05-09T03:17:07.018Z,85.8281
2024-05-09T03:18:08.885Z,85.8236
2024-05-09T03:19:11.018Z,85.8383
2024-05-09T03:20:20.483Z,85.7318
2024-05-09T03:21:14.974Z,85.6878
2024-05-09T03:22:16.612Z,85.6114
2024-05-09T03:23:18.428Z,85.6542
2024-05-09T03:24:20.137Z,85.6234
2024-05-09T03:25:21.872Z,85.6442
2024-05-09T03:26:23.804Z,85.8560
2024-05-09T03:27:25.580Z,85.8948
2024-05-09T03:28:27.248Z,85.9516
2024-05-09T03:29:29.009Z,85.8640
2024-05-09T03:30:39.419Z,85.8126
2024-05-09T03:31:32.855Z,85.9651
2024-05-09T03:32:34.688Z,86.1157
2024-05-09T03:33:36.860Z,86.0533
2024-05-09T03:34:39.023Z,85.9228
2024-05-09T03:35:40.936Z,85.9601
2024-05-09T03:36:42.727Z,85.8543
2024-05-09T03:37:44.465Z,85.9027
2024-05-09T03:38:46.260Z,85.8989
2024-05-09T03:39:47.927Z,85.9129
2024-05-09T03:40:50.371Z,85.9503
2024-05-09T03:41:50.051Z,85.9403
2024-05-09T03:42:51.818Z,86.0324
2024-05-09T03:43:53.589Z,86.1299
2024-05-09T03:44:55.309Z,86.0281
2024-05-09T03:45:57.044Z,85.7388
2024-05-09T03:46:58.972Z,85.9174
2024-05-09T03:48:00.816Z,85.9735
2024-05-09T03:49:02.787Z,85.9716
2024-05-09T03:50:05.608Z,86.0566
2024-05-09T03:51:05.037Z,86.0312
2024-05-09T03:52:06.782Z,86.0170
2024-05-09T03:53:08.582Z,86.0023
2024-05-09T03:54:10.223Z,86.0571
2024-05-09T03:55:12.042Z,86.1318
2024-05-09T03:56:13.777Z,86.1228
2024-05-09T03:57:15.549Z,86.0678
2024-05-09T03:58:17.261Z,86.0651
2024-05-09T03:59:19.060Z,86.1200
2024-05-09T04:00:30.463Z,86.1737
2024-05-09T04:01:22.876Z,86.2166
2024-05-09T04:02:24.641Z,86.3211
2024-05-09T04:03:26.878Z,86.3015
2024-05-09T04:04:28.902Z,86.4693
2024-05-09T04:05:30.918Z,86.4029
2024-05-09T04:06:32.973Z,86.2908
2024-05-09T04:07:34.698Z,86.3326
2024-05-09T04:08:36.605Z,86.2322
2024-05-09T04:09:38.544Z,86.1769
2024-05-09T04:10:40.317Z,86.1162
2024-05-09T04:11:42.140Z,86.0438
2024-05-09T04:12:43.855Z,85.9740
2024-05-09T04:13:45.636Z,85.7355
2024-05-09T04:14:47.429Z,85.6401
2024-05-09T04:15:49.171Z,85.5830
2024-05-09T04:16:50.935Z,85.3900
2024-05-09T04:17:52.877Z,85.4369
2024-05-09T04:18:54.834Z,85.3048
2024-05-09T04:19:56.574Z,85.2495
2024-05-09T04:20:58.328Z,85.5179
2024-05-09T04:22:00.052Z,85.5730
2024-05-09T04:23:01.811Z,85.3588
2024-05-09T04:24:03.597Z,85.4406
2024-05-09T04:25:05.290Z,85.3625
2024-05-09T04:26:07.068Z,85.4241
2024-05-09T04:27:08.760Z,85.2879
2024-05-09T04:28:10.485Z,85.1459
2024-05-09T04:29:12.443Z,85.2389
2024-05-09T04:30:21.702Z,85.0987
2024-05-09T04:31:16.289Z,85.2068
2024-05-09T04:32:18.037Z,85.3423
2024-05-09T04:33:20.345Z,85.4002
2024-05-09T04:34:22.671Z,85.2093
2024-05-09T04:35:24.767Z,85.2475
2024-05-09T04:36:26.594Z,85.3409
2024-05-09T04:37:28.308Z,85.3775
2024-05-09T04:38:30.028Z,85.2422
2024-05-09T04:39:31.855Z,85.1861
2024-05-09T04:40:36.199Z,85.1707
2024-05-09T04:41:36.356Z,85.2057
2024-05-09T04:42:38.126Z,85.1896
2024-05-09T04:43:39.810Z,85.2881
2024-05-09T04:44:41.657Z,85.4070
2024-05-09T04:45:43.364Z,85.1850
2024-05-09T04:46:45.177Z,84.8979
2024-05-09T04:47:47.067Z,84.6017
2024-05-09T04:48:49.101Z,84.6476
2024-05-09T04:49:51.035Z,84.7183
2024-05-09T04:50:52.840Z,84.6197
2024-05-09T04:51:54.603Z,84.6350
2024-05-09T04:52:56.387Z,84.8544
2024-05-09T04:53:58.106Z,84.9935
2024-05-09T04:54:59.899Z,85.0183
2024-05-09T04:56:01.672Z,85.0645
2024-05-09T04:57:03.406Z,85.1009
2024-05-09T04:58:05.082Z,85.2014
2024-05-09T04:59:06.972Z,85.0168
2024-05-09T05:00:14.611Z,84.9172
2024-05-09T05:01:10.849Z,85.0101
2024-05-09T05:02:12.821Z,84.8871
2024-05-09T05:03:16.029Z,84.8536
2024-05-09T05:04:15.855Z,84.7021
2024-05-09T05:05:17.902Z,84.8627
2024-05-09T05:06:19.824Z,84.7073
2024-05-09T05:07:21.574Z,84.7331
2024-05-09T05:08:23.417Z,84.8488
2024-05-09T05:09:25.128Z,84.7112
2024-05-09T05:10:33.592Z,84.9719
2024-05-09T05:11:29.145Z,84.9329
2024-05-09T05:12:31.163Z,84.9150
2024-05-09T05:13:33.143Z,85.0118
2024-05-09T05:14:34.954Z,85.0032
2024-05-09T05:15:36.771Z,85.1695
2024-05-09T05:16:38.514Z,85.0822
2024-05-09T05:17:40.555Z,84.8425
2024-05-09T05:18:42.475Z,84.7110
2024-05-09T05:19:44.543Z,84.8382
2024-05-09T05:20:46.531Z,84.7585
2024-05-09T05:21:48.395Z,84.7049
2024-05-09T05:22:50.246Z,84.7718
2024-05-09T05:23:52.049Z,84.8553
2024-05-09T05:24:53.841Z,84.5101
2024-05-09T05:25:55.991Z,84.5855
2024-05-09T05:26:57.937Z,84.8207
2024-05-09T05:27:59.688Z,84.8422
2024-05-09T05:29:01.528Z,84.7589
2024-05-09T05:30:03.576Z,84.8200
2024-05-09T05:31:04.764Z,84.8835
2024-05-09T05:32:06.652Z,84.9692
2024-05-09T05:33:08.585Z,84.9906
2024-05-09T05:34:10.485Z,84.9685
2024-05-09T05:35:12.340Z,84.9507
2024-05-09T05:36:14.099Z,85.0663
2024-05-09T05:37:15.912Z,85.1349
2024-05-09T05:38:17.968Z,84.7791
2024-05-09T05:39:19.894Z,84.8351
2024-05-09T05:40:28.354Z,84.8010
2024-05-09T05:41:23.850Z,84.6666
2024-05-09T05:42:25.603Z,84.6634
2024-05-09T05:43:27.468Z,84.9955
2024-05-09T05:44:29.299Z,85.1455
2024-05-09T05:45:31.118Z,84.8221
2024-05-09T05:46:32.879Z,84.5720
2024-05-09T05:47:34.971Z,84.7871
2024-05-09T05:48:37.145Z,84.7057
2024-05-09T05:49:39.096Z,84.7286
2024-05-09T05:50:41.072Z,84.6449
2024-05-09T05:51:42.840Z,84.5714
2024-05-09T05:52:44.645Z,84.6410
2024-05-09T05:53:46.575Z,84.4588
2024-05-09T05:54:48.363Z,84.2707
2024-05-09T05:55:50.206Z,84.4374
2024-05-09T05:56:52.056Z,84.4026
2024-05-09T05:57:53.853Z,84.6322
2024-05-09T05:58:55.660Z,84.5887
2024-05-09T05:59:57.429Z,84.4314
2024-05-09T06:00:59.230Z,84.4073
2024-05-09T06:02:01.193Z,84.5305
2024-05-09T06:03:03.143Z,84.4544
2024-05-09T06:04:05.076Z,84.5618
2024-05-09T06:05:06.872Z,84.4977
2024-05-09T06:06:08.631Z,84.4661
2024-05-09T06:07:10.417Z,84.4237
2024-05-09T06:08:12.392Z,84.3157
2024-05-09T06:09:14.326Z,83.9531
2024-05-09T06:10:21.466Z,83.5869
2024-05-09T06:11:18.321Z,83.3471
2024-05-09T06:12:20.165Z,83.6366
2024-05-09T06:13:21.995Z,83.4964
2024-05-09T06:14:23.852Z,83.5076
2024-05-09T06:15:25.861Z,83.2863
2024-05-09T06:16:27.614Z,83.3951
2024-05-09T06:17:29.493Z,83.5060
2024-05-09T06:18:31.502Z,83.3697
2024-05-09T06:19:33.702Z,83.0477
2024-05-09T06:20:37.903Z,82.4618
2024-05-09T06:21:37.823Z,82.3461
2024-05-09T06:22:39.603Z,82.4122
2024-05-09T06:23:41.363Z,82.2924
2024-05-09T06:24:43.178Z,82.1319
2024-05-09T06:25:45.099Z,81.8392
2024-05-09T06:26:46.868Z,81.3243
2024-05-09T06:27:48.669Z,81.2765
2024-05-09T06:28:50.523Z,80.7844
2024-05-09T06:29:52.286Z,80.2402
2024-05-09T06:30:54.058Z,80.6789
2024-05-09T06:31:59.523Z,80.3761
2024-05-09T06:32:56.367Z,80.3601
2024-05-09T06:33:58.382Z,79.4778
2024-05-09T06:35:00.296Z,79.2682
2024-05-09T06:36:02.050Z,79.7075
2024-05-09T06:37:03.816Z,78.8999
2024-05-09T06:38:05.696Z,78.7305
2024-05-09T06:39:07.517Z,78.9564
2024-05-09T06:40:10.081Z,78.8574
2024-05-09T06:41:09.317Z,78.5957
2024-05-09T06:42:11.077Z,79.1266
2024-05-09T06:43:12.970Z,79.3705
2024-05-09T06:44:14.793Z,79.1659
2024-05-09T06:45:16.587Z,79.2137
2024-05-09T06:46:18.386Z,79.5671
2024-05-09T06:47:20.358Z,78.8960
2024-05-09T06:48:22.944Z,79.3803
2024-05-09T06:49:22.475Z,79.2625
2024-05-09T06:50:28.146Z,77.8469
2024-05-09T06:51:26.480Z,76.2859
2024-05-09T06:52:28.307Z,76.7807
2024-05-09T06:53:30.105Z,77.8041
2024-05-09T06:54:31.890Z,77.4513
2024-05-09T06:55:33.742Z,77.7625
2024-05-09T06:56:35.575Z,78.3555
2024-05-09T06:57:39.179Z,78.4480
2024-05-09T06:58:37.698Z,78.7869
2024-05-09T06:59:39.484Z,78.8194
2024-05-09T07:00:42.216Z,79.6399
2024-05-09T07:01:41.524Z,79.1169
2024-05-09T07:02:43.365Z,79.5265
2024-05-09T07:03:45.238Z,79.3330
2024-05-09T07:04:47.199Z,79.2333
2024-05-09T07:05:49.865Z,79.4209
2024-05-09T07:06:49.127Z,79.6251
2024-05-09T07:07:50.935Z,79.3830
2024-05-09T07:08:52.863Z,79.7767
2024-05-09T07:09:54.666Z,79.7189
2024-05-09T07:10:56.506Z,79.8580
2024-05-09T07:11:58.370Z,79.8051
2024-05-09T07:13:00.180Z,79.7966
2024-05-09T07:14:02.001Z,79.4449
2024-05-09T07:15:03.814Z,79.4120
2024-05-09T07:16:05.591Z,79.4830
2024-05-09T07:17:07.521Z,79.4593
2024-05-09T07:18:09.524Z,79.3446
2024-05-09T07:19:11.612Z,79.1637
2024-05-09T07:20:23.027Z,79.3561
2024-05-09T07:21:15.776Z,79.1586
2024-05-09T07:22:17.653Z,79.2091
2024-05-09T07:23:19.655Z,79.1577
2024-05-09T07:24:21.725Z,78.7246
2024-05-09T07:25:23.521Z,78.6325
2024-05-09T07:26:25.385Z,78.0797
2024-05-09T07:27:27.207Z,78.1714
2024-05-09T07:28:28.968Z,77.2885
2024-05-09T07:29:30.847Z,77.7263
2024-05-09T07:30:34.399Z,77.5814
2024-05-09T07:31:34.233Z,77.3818
2024-05-09T07:32:36.141Z,77.5440
2024-05-09T07:33:37.957Z,76.7885
2024-05-09T07:34:39.841Z,77.5744
2024-05-09T07:35:41.669Z,77.5658
2024-05-09T07:36:43.393Z,76.9133
2024-05-09T07:37:45.218Z,76.9701
2024-05-09T07:38:46.997Z,77.5063
2024-05-09T07:39:48.795Z,77.8965
2024-05-09T07:40:50.637Z,77.9408
2024-05-09T07:41:52.522Z,78.1532
2024-05-09T07:42:54.290Z,78.3785
2024-05-09T07:43:56.089Z,77.9726
2024-05-09T07:45:14.551Z,77.9219
2024-05-09T07:46:28.567Z,77.0855
2024-05-09T07:53:29.268Z,77.2099
2024-05-09T07:53:37.744Z,77.7114
2024-05-09T07:54:17.031Z,77.5779
2024-05-09T07:55:19.220Z,77.5414
2024-05-09T07:56:22.831Z,77.1170
2024-05-09T07:57:23.109Z,77.5116
2024-05-09T07:58:24.898Z,76.3884
2024-05-09T07:59:26.656Z,76.4006
2024-05-09T08:00:31.516Z,76.0784
2024-05-09T08:01:28.882Z,75.7910
2024-05-09T08:02:30.841Z,75.5737
2024-05-09T08:03:32.976Z,75.5409
2024-05-09T08:04:35.015Z,75.2232
2024-05-09T08:05:37.095Z,75.2703
2024-05-09T08:06:39.097Z,74.8400
2024-05-09T08:07:40.952Z,74.2651
2024-05-09T08:08:42.799Z,73.3599
2024-05-09T08:09:44.665Z,74.1754
2024-05-09T08:10:46.602Z,74.3732
2024-05-09T08:11:48.490Z,73.8230
2024-05-09T08:12:50.487Z,74.4170
2024-05-09T08:13:52.246Z,74.3219
2024-05-09T08:14:54.086Z,73.7222
2024-05-09T08:15:55.945Z,74.2236
2024-05-09T08:16:57.763Z,74.3623
2024-05-09T08:17:59.783Z,74.3602
2024-05-09T08:19:01.731Z,73.9626
2024-05-09T08:20:05.432Z,74.7290
2024-05-09T08:21:04.678Z,75.4835
2024-05-09T08:22:06.794Z,74.2523
2024-05-09T08:23:08.754Z,74.7569
2024-05-09T08:24:10.723Z,74.8332
2024-05-09T08:25:14.161Z,74.5040
2024-05-09T08:26:13.586Z,75.0017
2024-05-09T08:27:15.411Z,75.2223
2024-05-09T08:28:17.388Z,75.3892
2024-05-09T08:29:19.264Z,75.5993
2024-05-09T08:30:25.482Z,75.4640
2024-05-09T08:31:23.554Z,75.8694
2024-05-09T08:32:25.402Z,75.5800
2024-05-09T08:33:27.396Z,75.5308
2024-05-09T08:34:29.480Z,75.9086
2024-05-09T08:35:31.484Z,76.0654
2024-05-09T08:36:33.554Z,76.1893
2024-05-09T08:37:38.783Z,76.1059
2024-05-09T08:38:37.443Z,75.8242
2024-05-09T08:39:39.267Z,75.8543
2024-05-09T08:40:41.259Z,75.4689
2024-05-09T08:41:43.181Z,75.3094
2024-05-09T08:42:45.040Z,75.3337
2024-05-09T08:43:46.910Z,74.3285
2024-05-09T08:44:48.829Z,74.9081
2024-05-09T08:45:50.737Z,74.3098
2024-05-09T08:46:52.533Z,73.4149
2024-05-09T08:47:54.438Z,73.2203
2024-05-09T08:48:56.351Z,72.5710
2024-05-09T08:49:58.280Z,73.0940
2024-05-09T08:51:00.161Z,73.5807
2024-05-09T08:52:02.059Z,73.1397
2024-05-09T08:53:03.888Z,73.0139
2024-05-09T08:54:05.696Z,73.1858
2024-05-09T08:55:07.617Z,74.0246
2024-05-09T08:56:09.440Z,74.0064
2024-05-09T08:57:11.229Z,73.7669
2024-05-09T08:58:13.094Z,73.8159
2024-05-09T08:59:15.114Z,73.4586
2024-05-09T09:00:25.603Z,73.0829
2024-05-09T09:01:19.327Z,73.6593
2024-05-09T09:02:21.492Z,73.4300
2024-05-09T09:03:23.528Z,73.0356
2024-05-09T09:04:25.557Z,73.3331
2024-05-09T09:05:27.792Z,72.3966
2024-05-09T09:06:29.682Z,73.1556
2024-05-09T09:07:31.635Z,73.2348
2024-05-09T09:08:33.548Z,72.8427
2024-05-09T09:09:35.360Z,73.5754
2024-05-09T09:10:37.251Z,73.7266
2024-05-09T09:11:38.998Z,74.4597
2024-05-09T09:12:40.788Z,75.0718
2024-05-09T09:13:42.635Z,74.7397
2024-05-09T09:14:44.476Z,74.6512
2024-05-09T09:15:46.387Z,74.2207
2024-05-09T09:16:48.165Z,73.8895
2024-05-09T09:17:50.067Z,73.2584
2024-05-09T09:18:52.477Z,72.9872
2024-05-09T09:19:54.822Z,72.8378
2024-05-09T09:20:56.802Z,73.0063
2024-05-09T09:21:58.558Z,73.6003
2024-05-09T09:23:00.613Z,73.4929
2024-05-09T09:24:02.456Z,73.2394
2024-05-09T09:25:04.394Z,73.3146
2024-05-09T09:26:06.288Z,72.6439
2024-05-09T09:27:08.051Z,72.7864
2024-05-09T09:28:10.129Z,72.8189
2024-05-09T09:29:12.004Z,72.5875
2024-05-09T09:30:27.680Z,71.9066
2024-05-09T09:31:16.122Z,71.7137
2024-05-09T09:32:18.110Z,70.9443
2024-05-09T09:33:19.994Z,69.8751
2024-05-09T09:34:22.040Z,69.6977
2024-05-09T09:35:23.852Z,69.8673
2024-05-09T09:36:25.809Z,70.7306
2024-05-09T09:37:27.608Z,70.6572
2024-05-09T09:38:29.651Z,70.2208
2024-05-09T09:39:31.520Z,70.0706
2024-05-09T09:40:35.902Z,70.8960
2024-05-09T09:41:35.590Z,70.2681
2024-05-09T09:42:37.439Z,70.2278
2024-05-09T09:43:39.404Z,69.5155
2024-05-09T09:44:42.373Z,69.6153
2024-05-09T09:45:41.326Z,70.1296
2024-05-09T09:46:43.147Z,70.8843
2024-05-09T09:47:45.211Z,71.0960
2024-05-09T09:48:47.332Z,70.5121
2024-05-09T09:49:49.235Z,70.4033
2024-05-09T09:50:51.190Z,70.0588
2024-05-09T09:51:53.137Z,69.9296
2024-05-09T09:52:54.972Z,69.8868
2024-05-09T09:53:56.766Z,69.8618
2024-05-09T09:54:56.918Z,69.2404
2024-05-09T09:55:58.652Z,67.2092
2024-05-09T09:57:00.452Z,67.4869
2024-05-09T09:58:02.461Z,66.8149
2024-05-09T09:59:04.281Z,67.1172
2024-05-09T10:00:09.571Z,66.9433
2024-05-09T10:01:08.829Z,66.7668
2024-05-09T10:02:10.994Z,67.4457
2024-05-09T10:03:13.314Z,66.0087
2024-05-09T10:04:15.309Z,65.8886
2024-05-09T10:05:17.222Z,64.6866
2024-05-09T10:06:19.118Z,65.0017
2024-05-09T10:07:21.187Z,64.8342
2024-05-09T10:08:23.119Z,64.1192
2024-05-09T10:09:25.036Z,63.9038
2024-05-09T10:10:31.728Z,63.9886
2024-05-09T10:11:29.534Z,64.6573
2024-05-09T10:12:31.554Z,64.6325
2024-05-09T10:13:33.450Z,65.3916
2024-05-09T10:14:35.396Z,64.1740
2024-05-09T10:15:37.429Z,64.7752
2024-05-09T10:16:39.234Z,65.2506
2024-05-09T10:17:41.296Z,65.2531
2024-05-09T10:18:43.570Z,66.3808
2024-05-09T10:19:45.798Z,66.4023
2024-05-09T10:20:47.675Z,66.3568
2024-05-09T10:21:49.737Z,65.6154
2024-05-09T10:22:51.740Z,64.7094
2024-05-09T10:23:53.806Z,64.1659
2024-05-09T10:24:55.740Z,64.0097
2024-05-09T10:25:57.584Z,63.5522
2024-05-09T10:26:59.438Z,63.8442
2024-05-09T10:28:01.480Z,62.7289
2024-05-09T10:29:03.584Z,62.4324
2024-05-09T10:30:11.504Z,62.5457
2024-05-09T10:31:07.964Z,62.9466
2024-05-09T10:32:09.958Z,63.9748
2024-05-09T10:33:12.180Z,63.9280
2024-05-09T10:34:14.289Z,63.8376
2024-05-09T10:35:16.284Z,62.8432
2024-05-09T10:36:18.173Z,63.3241
2024-05-09T10:37:20.280Z,65.0947
2024-05-09T10:38:22.124Z,64.7288
2024-05-09T10:39:24.053Z,65.1301
2024-05-09T10:40:31.096Z,65.6132
2024-05-09T10:41:28.396Z,65.7587
2024-05-09T10:42:30.308Z,65.9761
2024-05-09T10:43:32.420Z,66.8120
2024-05-09T10:44:34.424Z,66.3897
2024-05-09T10:45:36.467Z,66.3620
2024-05-09T10:46:38.298Z,67.2940
2024-05-09T10:47:40.324Z,66.8581
2024-05-09T10:48:42.562Z,67.3444
2024-05-09T10:49:44.564Z,67.4623
2024-05-09T10:50:46.399Z,66.9458
2024-05-09T10:51:48.380Z,67.1116
2024-05-09T10:52:50.463Z,66.8346
2024-05-09T10:53:52.298Z,66.3976
2024-05-09T10:54:54.482Z,66.1001
2024-05-09T10:55:56.402Z,64.9002
2024-05-09T10:56:58.199Z,64.8724
2024-05-09T10:58:00.333Z,64.5431
2024-05-09T10:59:02.296Z,62.8365
2024-05-09T11:00:06.307Z,62.4188
2024-05-09T11:01:06.662Z,62.0478
2024-05-09T11:02:06.752Z,63.2653
2024-05-09T11:03:08.797Z,62.6180
2024-05-09T11:04:10.775Z,62.7283
2024-05-09T11:05:12.941Z,63.2031
2024-05-09T11:06:14.905Z,61.1735
2024-05-09T11:07:17.076Z,61.4490
2024-05-09T11:08:18.923Z,61.8748
2024-05-09T11:09:20.867Z,61.9869
2024-05-09T11:10:55.334Z,60.2836
2024-05-09T11:11:57.365Z,61.0093
2024-05-09T11:12:59.445Z,61.7836
2024-05-09T11:14:01.295Z,60.5772
2024-05-09T11:15:03.240Z,61.7155
2024-05-09T11:16:05.361Z,61.9817
2024-05-09T11:17:07.430Z,62.6008
2024-05-09T11:18:09.319Z,62.8524
2024-05-09T11:19:11.276Z,62.0409
2024-05-09T11:20:19.660Z,62.2550
2024-05-09T11:21:15.712Z,62.5431
2024-05-09T11:22:17.769Z,61.5785
2024-05-09T11:23:19.717Z,59.9699
2024-05-09T11:24:21.525Z,58.9339
2024-05-09T11:25:23.489Z,59.4937
2024-05-09T11:26:25.605Z,59.2570
2024-05-09T11:27:27.465Z,59.8924
2024-05-09T11:28:29.273Z,60.0078
2024-05-09T11:29:31.103Z,59.9381
2024-05-09T11:30:32.917Z,60.8122
2024-05-09T11:31:35.019Z,61.6086
2024-05-09T11:32:37.066Z,62.8344
2024-05-09T11:33:39.403Z,62.0093
2024-05-09T11:34:41.547Z,62.1097
2024-05-09T11:35:43.543Z,61.8224
2024-05-09T11:36:45.589Z,62.1828
2024-05-09T11:37:47.414Z,62.7884
2024-05-09T11:38:49.519Z,61.9038
2024-05-09T11:39:51.553Z,62.3006
2024-05-09T11:40:53.428Z,62.6033
2024-05-09T11:41:55.409Z,63.1143
2024-05-09T11:42:57.347Z,61.3329
2024-05-09T11:43:59.197Z,60.9165
2024-05-09T11:45:01.313Z,59.8349
2024-05-09T11:46:03.783Z,61.1117
2024-05-09T11:47:03.573Z,59.6857
2024-05-09T11:48:05.707Z,60.2653
2024-05-09T11:49:07.885Z,60.7733
2024-05-09T11:50:15.999Z,61.5217
2024-05-09T11:51:11.904Z,62.1482
2024-05-09T11:52:13.991Z,62.2391
2024-05-09T11:53:16.054Z,62.8462
2024-05-09T11:54:17.860Z,63.2613
2024-05-09T11:55:19.903Z,63.9639
2024-05-09T11:56:22.010Z,64.3060
2024-05-09T11:57:23.957Z,64.2546
2024-05-09T11:58:25.796Z,64.6458
2024-05-09T11:59:27.618Z,64.6602
2024-05-09T12:00:36.513Z,64.1356
2024-05-09T12:01:32.385Z,63.7036
2024-05-09T12:02:34.414Z,63.4915
2024-05-09T12:03:36.628Z,63.1237
2024-05-09T12:04:38.785Z,63.4334
2024-05-09T12:05:41.065Z,62.6381
2024-05-09T12:06:43.222Z,62.3891
2024-05-09T12:07:45.160Z,62.7575
2024-05-09T12:08:46.956Z,62.2914
2024-05-09T12:09:48.929Z,61.1471
2024-05-09T12:10:50.885Z,58.9729
2024-05-09T12:11:53.131Z,59.2167
2024-05-09T12:12:55.278Z,59.3856
2024-05-09T12:13:57.329Z,59.6728
2024-05-09T12:14:59.291Z,60.4234
2024-05-09T12:16:01.260Z,61.0507
2024-05-09T12:17:03.427Z,60.7389
2024-05-09T12:18:05.505Z,61.3157
2024-05-09T12:19:07.588Z,62.1730
2024-05-09T12:20:17.425Z,62.0385
2024-05-09T12:21:11.776Z,61.5259
2024-05-09T12:22:13.719Z,61.5799
2024-05-09T12:23:15.644Z,62.5068
2024-05-09T12:24:18.531Z,60.1060
2024-05-09T12:25:18.113Z,59.4186
2024-05-09T12:26:20.028Z,59.3128
2024-05-09T12:27:22.167Z,60.3009
2024-05-09T12:28:24.168Z,60.3346
2024-05-09T12:29:26.199Z,58.6046
2024-05-09T12:30:35.771Z,57.1613
2024-05-09T12:31:30.577Z,58.6583
2024-05-09T12:32:32.657Z,59.9698
2024-05-09T12:33:34.729Z,59.2830